Weather History for KBKD - April, 2013

Change the Weather History Date:

Tuesday, April 23, 2013

  Actual Average (KABI) Record (KABI)
Temperature  
Mean Temperature 57 °F 67 °F  
Max Temperature 73 °F 79 °F 95 °F (1894)
Min Temperature 41 °F 54 °F 37 °F (1907)
Degree Days  
Heating Degree Days 8 2  
Month to date heating degree days 99  
Since 1 July heating degree days 2530  
Cooling Degree Days 0 4  
Month to date cooling degree days 66  
Year to date cooling degree days 100  
Growing Degree Days 7 (Base 50)    
Moisture  
Dew Point 39 °F    
Average Humidity 66    
Maximum Humidity 87    
Minimum Humidity 53    
Precipitation  
Precipitation 0.00 in 0.06 in 2.40 in (2004)
Month to date precipitation 1.15  
Year to date precipitation 5.27  
Sea Level Pressure  
Sea Level Pressure 30.04 in    
Wind  
Wind Speed 15 mph (NNW)    
Max Wind Speed 20 mph    
Max Gust Speed 29 mph    
Visibility 10 miles    
Events      
T = Trace of Precipitation, MM = Missing Value Source: NWS Daily Summary

Daily Weather History Graph

Daily Weather History Graph

Search for Another Location

Airport or City:

Trip Planner

Search our weather history database for the weather conditions in past years. The results will help you decide how hot, cold, wet, or windy it might be!

Date:

Astronomy

Apr. 23, 2013 Rise Set
Actual Time 6:56 AM CDT 8:11 PM CDT
Civil Twilight 6:30 AM CDT 8:37 PM CDT
Nautical Twilight 6:00 AM CDT 9:08 PM CDT
Astronomical Twilight 5:28 AM CDT 9:40 PM CDT
Moon 6:13 PM CDT (4/23) 5:18 AM CDT (4/23)
Length of Visible Light 14h 06m
Length of Day
13h 15m
Waxing Gibbous, 94% of the Moon is Illuminated
Apr 23
Waxing Gibbous
Apr 25
Full
May 2
Last Quarter
May 9
New
May 17
First Quarter

Hourly Weather History & Observations

Time (CDT) Temp. Windchill Dew Point Humidity Pressure Visibility Wind Dir Wind Speed Gust Speed Precip Events Conditions
12:14 AM 73.4 °F - 55.4 °F 53% 29.77 in 10.0 mi South 17.3 mph 26.5 mph N/A   Clear
12:34 AM 73.4 °F - 55.4 °F 53% 29.78 in 10.0 mi South 12.7 mph 23.0 mph N/A   Clear
1:14 AM 71.6 °F - 55.4 °F 57% 29.77 in 10.0 mi South 16.1 mph - N/A   Clear
1:57 AM 71.6 °F - 55.4 °F 57% 29.76 in 10.0 mi South 16.1 mph - N/A   Clear
2:18 AM 71.6 °F - 55.4 °F 57% 29.76 in 10.0 mi South 18.4 mph 24.2 mph N/A   Clear
2:34 AM 69.8 °F - 55.4 °F 60% 29.76 in 10.0 mi South 16.1 mph 20.7 mph N/A   Clear
3:00 AM 69.8 °F - 55.4 °F 60% 29.75 in 10.0 mi South 15.0 mph 19.6 mph N/A   Clear
3:14 AM 69.8 °F - 55.4 °F 60% 29.74 in 10.0 mi South 17.3 mph 25.3 mph N/A   Clear
3:35 AM 68.0 °F - 55.4 °F 64% 29.81 in 10.0 mi NW 18.4 mph 24.2 mph N/A   Clear
3:54 AM 69.8 °F - 55.4 °F 60% 29.83 in 10.0 mi WNW 9.2 mph 21.9 mph N/A   Scattered Clouds
4:18 AM 69.8 °F - 55.4 °F 60% 29.82 in 10.0 mi West 5.8 mph - N/A   Scattered Clouds
4:35 AM 57.2 °F - 44.6 °F 63% 29.86 in 10.0 mi NNW 19.6 mph 28.8 mph N/A   Scattered Clouds
4:54 AM 55.4 °F - 44.6 °F 67% 29.88 in 10.0 mi NNW 15.0 mph 21.9 mph N/A   Clear
5:38 AM 51.8 °F - 42.8 °F 71% 29.90 in 10.0 mi North 16.1 mph 23.0 mph N/A   Clear
5:54 AM 50.0 °F - 41.0 °F 71% 29.92 in 10.0 mi NNW 17.3 mph 25.3 mph N/A   Clear
6:14 AM 48.2 °F - 39.2 °F 71% 29.93 in 10.0 mi NNW 17.3 mph 25.3 mph N/A   Mostly Cloudy
6:34 AM 48.2 °F - 39.2 °F 71% 29.96 in 10.0 mi NNW 18.4 mph 26.5 mph N/A   Overcast
6:54 AM 48.2 °F - 39.2 °F 71% 29.97 in 10.0 mi NNW 11.5 mph 23.0 mph N/A   Overcast
7:18 AM 46.4 °F 39.8 °F 39.2 °F 76% 29.99 in 10.0 mi NNW 16.1 mph 19.6 mph N/A   Overcast
7:34 AM 46.4 °F 39.5 °F 39.2 °F 76% 30.01 in 10.0 mi NNW 17.3 mph 24.2 mph N/A   Overcast
7:54 AM 44.6 °F 37.4 °F 37.4 °F 76% 30.03 in 10.0 mi NNW 16.1 mph 27.6 mph N/A   Overcast
8:14 AM 44.6 °F 37.8 °F 37.4 °F 76% 30.04 in 10.0 mi NNW 15.0 mph 26.5 mph N/A   Overcast
8:34 AM 44.6 °F 37.4 °F 37.4 °F 76% 30.05 in 10.0 mi North 16.1 mph 21.9 mph N/A   Overcast
8:54 AM 44.6 °F 38.8 °F 37.4 °F 76% 30.06 in 10.0 mi NNW 11.5 mph 24.2 mph N/A   Overcast
9:14 AM 44.6 °F 37.8 °F 37.4 °F 76% 30.07 in 7.0 mi NNW 15.0 mph 20.7 mph N/A   Overcast
9:36 AM 44.6 °F 36.9 °F 37.4 °F 76% 30.08 in 10.0 mi NNW 18.4 mph 26.5 mph N/A   Overcast
9:54 AM 44.6 °F 37.4 °F 37.4 °F 76% 30.09 in 10.0 mi NNW 16.1 mph 25.3 mph N/A   Overcast
10:14 AM 44.6 °F 37.8 °F 37.4 °F 76% 30.09 in 10.0 mi North 15.0 mph 23.0 mph N/A   Overcast
10:34 AM 42.8 °F 35.4 °F 39.2 °F 87% 30.10 in 4.0 mi NNW 15.0 mph 20.7 mph N/A   Overcast
10:54 AM 42.8 °F 35.1 °F 39.2 °F 87% 30.11 in 7.0 mi North 16.1 mph 21.9 mph N/A   Overcast
11:14 AM 44.6 °F 37.2 °F 37.4 °F 76% 30.11 in 10.0 mi North 17.3 mph 23.0 mph N/A   Overcast
11:34 AM 44.6 °F 37.8 °F 37.4 °F 76% 30.12 in 10.0 mi NNW 15.0 mph 21.9 mph N/A   Overcast
11:54 AM 44.6 °F 37.8 °F 35.6 °F 71% 30.11 in 10.0 mi North 15.0 mph 24.2 mph N/A   Overcast
12:17 PM 44.6 °F 37.8 °F 35.6 °F 71% 30.11 in 10.0 mi North 15.0 mph 24.2 mph N/A   Overcast
12:34 PM 46.4 °F 39.5 °F 35.6 °F 66% 30.11 in 10.0 mi North 17.3 mph 24.2 mph N/A   Overcast
12:54 PM 46.4 °F 41.1 °F 35.6 °F 66% 30.11 in 10.0 mi North 11.5 mph 21.9 mph N/A   Overcast
1:14 PM 46.4 °F 40.4 °F 33.8 °F 62% 30.10 in 10.0 mi North 13.8 mph 23.0 mph N/A   Overcast
1:34 PM 46.4 °F 40.7 °F 33.8 °F 62% 30.10 in 10.0 mi North 12.7 mph 20.7 mph N/A   Overcast
1:54 PM 46.4 °F 39.5 °F 33.8 °F 62% 30.09 in 10.0 mi North 17.3 mph 23.0 mph N/A   Overcast
2:14 PM 46.4 °F 40.1 °F 33.8 °F 62% 30.09 in 10.0 mi North 15.0 mph 21.9 mph N/A   Overcast
2:55 PM 48.2 °F - 33.8 °F 58% 30.08 in 10.0 mi North 12.7 mph 16.1 mph N/A   Overcast
3:14 PM 48.2 °F - 33.8 °F 58% 30.08 in 10.0 mi North 13.8 mph 18.4 mph N/A   Overcast
3:34 PM 48.2 °F - 35.6 °F 62% 30.08 in 10.0 mi North 9.2 mph - N/A   Overcast
3:54 PM 48.2 °F - 33.8 °F 58% 30.08 in 10.0 mi North 8.1 mph 19.6 mph N/A   Overcast
4:14 PM 48.2 °F - 33.8 °F 58% 30.08 in 10.0 mi North 15.0 mph - N/A   Overcast
4:34 PM 48.2 °F - 33.8 °F 58% 30.08 in 10.0 mi North 12.7 mph 20.7 mph N/A   Overcast
4:54 PM 48.2 °F - 33.8 °F 58% 30.08 in 10.0 mi North 12.7 mph 18.4 mph N/A   Overcast
5:14 PM 48.2 °F - 33.8 °F 58% 30.08 in 10.0 mi North 15.0 mph 21.9 mph N/A   Overcast
5:34 PM 48.2 °F - 33.8 °F 58% 30.08 in 10.0 mi North 15.0 mph 19.6 mph N/A   Overcast
5:54 PM 48.2 °F - 33.8 °F 58% 30.08 in 10.0 mi North 15.0 mph 20.7 mph N/A   Overcast
6:14 PM 48.2 °F - 33.8 °F 58% 30.08 in 10.0 mi North 12.7 mph 18.4 mph N/A   Overcast
6:34 PM 48.2 °F - 33.8 °F 58% 30.08 in 10.0 mi North 13.8 mph 20.7 mph N/A   Overcast
6:54 PM 46.4 °F 39.5 °F 33.8 °F 62% 30.09 in 10.0 mi North 17.3 mph 23.0 mph N/A   Overcast
7:14 PM 46.4 °F 39.8 °F 33.8 °F 62% 30.10 in 10.0 mi North 16.1 mph 21.9 mph N/A   Overcast
7:34 PM 46.4 °F 39.8 °F 33.8 °F 62% 30.10 in 10.0 mi North 16.1 mph 20.7 mph N/A   Overcast
7:54 PM 46.4 °F 40.1 °F 33.8 °F 62% 30.11 in 10.0 mi North 15.0 mph 20.7 mph N/A   Overcast
8:14 PM 46.4 °F 40.4 °F 33.8 °F 62% 30.12 in 10.0 mi North 13.8 mph 21.9 mph N/A   Overcast
8:34 PM 44.6 °F 37.2 °F 33.8 °F 66% 30.13 in 10.0 mi North 17.3 mph 25.3 mph N/A   Overcast
8:54 PM 44.6 °F 36.6 °F 33.8 °F 66% 30.16 in 10.0 mi North 19.6 mph 25.3 mph N/A   Overcast
9:14 PM 44.6 °F 37.8 °F 33.8 °F 66% 30.18 in 10.0 mi North 15.0 mph 21.9 mph N/A   Overcast
9:34 PM 44.6 °F 38.4 °F 33.8 °F 66% 30.19 in 10.0 mi North 12.7 mph 21.9 mph N/A   Overcast
9:54 PM 42.8 °F 35.1 °F 32.0 °F 66% 30.21 in 10.0 mi North 16.1 mph 25.3 mph N/A   Overcast
10:14 PM 42.8 °F 35.1 °F 33.8 °F 70% 30.22 in 10.0 mi North 16.1 mph 19.6 mph N/A   Overcast
10:34 PM 42.8 °F 34.3 °F 32.0 °F 66% 30.23 in 10.0 mi North 19.6 mph 23.0 mph N/A   Overcast
10:54 PM 42.8 °F 35.8 °F 32.0 °F 66% 30.24 in 10.0 mi North 13.8 mph 25.3 mph N/A   Overcast
11:14 PM 41.0 °F 32.5 °F 32.0 °F 70% 30.25 in 10.0 mi North 17.3 mph 26.5 mph N/A   Overcast
11:34 PM 41.0 °F 33.1 °F 32.0 °F 70% 30.25 in 10.0 mi North 15.0 mph 20.7 mph N/A   Overcast
11:54 PM 41.0 °F 32.5 °F 32.0 °F 70% 30.26 in 10.0 mi North 17.3 mph 26.5 mph N/A   Overcast